createdAt,value
2023-02-09T00:00:52.076Z,0.04
2023-02-09T00:01:52.196Z,0.08
2023-02-09T00:02:51.980Z,0.18
2023-02-09T00:03:52.092Z,0.11
2023-02-09T00:04:51.657Z,0.05
2023-02-09T00:05:51.855Z,0
2023-02-09T00:06:51.825Z,0.04
2023-02-09T00:07:51.790Z,0
2023-02-09T00:08:51.807Z,-0.02
2023-02-09T00:09:51.716Z,-0.03
2023-02-09T00:10:52.083Z,-0.06
2023-02-09T00:11:51.644Z,-0.2
2023-02-09T00:12:51.630Z,-0.11
2023-02-09T00:13:51.554Z,-0.1
2023-02-09T00:14:51.550Z,-0.1
2023-02-09T00:15:51.493Z,-0.07
2023-02-09T00:16:51.838Z,-0.08
2023-02-09T00:17:51.446Z,-0.06
2023-02-09T00:18:51.362Z,-0.11
2023-02-09T00:19:51.321Z,-0.11
2023-02-09T00:20:51.692Z,-0.1
2023-02-09T00:21:51.262Z,-0.15
2023-02-09T00:22:51.243Z,-0.07
2023-02-09T00:23:51.180Z,0.01
2023-02-09T00:24:51.192Z,-0.17
2023-02-09T00:25:51.091Z,-0.15
2023-02-09T00:26:51.052Z,-0.1
2023-02-09T00:27:51.028Z,-0.15
2023-02-09T00:28:51.012Z,-0.15
2023-02-09T00:29:50.939Z,-0.15
2023-02-09T00:30:51.514Z,-0.1
2023-02-09T00:31:51.073Z,-0.17
2023-02-09T00:32:50.844Z,-0.23
2023-02-09T00:33:50.794Z,-0.23
2023-02-09T00:34:50.770Z,-0.2
2023-02-09T00:35:50.769Z,-0.23
2023-02-09T00:36:50.676Z,-0.28
2023-02-09T00:37:50.629Z,-0.29
2023-02-09T00:38:50.586Z,-0.23
2023-02-09T00:39:50.567Z,-0.23
2023-02-09T00:40:50.875Z,-0.23
2023-02-09T00:41:50.475Z,-0.26
2023-02-09T00:42:50.690Z,-0.25
2023-02-09T00:43:50.407Z,-0.34
2023-02-09T00:44:50.391Z,-0.34
2023-02-09T00:45:50.521Z,-0.38
2023-02-09T00:46:50.292Z,-0.35
2023-02-09T00:47:50.258Z,-0.29
2023-02-09T00:48:50.243Z,-0.32
2023-02-09T00:49:50.176Z,-0.28
2023-02-09T00:50:50.596Z,-0.23
2023-02-09T00:51:50.128Z,-0.21
2023-02-09T00:52:50.048Z,-0.28
2023-02-09T00:53:50.016Z,-0.26
2023-02-09T00:54:49.977Z,-0.32
2023-02-09T00:55:49.956Z,-0.28
2023-02-09T00:56:49.963Z,-0.34
2023-02-09T00:57:49.861Z,-0.34
2023-02-09T00:58:49.821Z,-0.34
2023-02-09T00:59:49.783Z,-0.35
2023-02-09T01:00:50.420Z,-0.36
2023-02-09T01:01:49.763Z,-0.39
2023-02-09T01:02:49.450Z,-0.36
2023-02-09T01:03:49.632Z,-0.47
2023-02-09T01:04:49.846Z,-0.46
2023-02-09T01:05:49.570Z,-0.52
2023-02-09T01:06:49.518Z,-0.49
2023-02-09T01:07:49.492Z,-0.57
2023-02-09T01:08:49.434Z,-0.56
2023-02-09T01:09:49.454Z,-0.56
2023-02-09T01:10:50.003Z,-0.49
2023-02-09T01:11:49.328Z,-0.49
2023-02-09T01:12:49.378Z,-0.49
2023-02-09T01:13:49.247Z,-0.49
2023-02-09T01:14:49.199Z,-0.47
2023-02-09T01:15:49.160Z,-0.59
2023-02-09T01:16:49.438Z,-0.57
2023-02-09T01:17:48.862Z,-0.57
2023-02-09T01:18:49.065Z,-0.7
2023-02-09T01:19:49.027Z,-0.68
2023-02-09T01:20:49.751Z,-0.72
2023-02-09T01:21:48.945Z,-0.77
2023-02-09T01:22:48.896Z,-0.71
2023-02-09T01:23:48.876Z,-0.7
2023-02-09T01:24:48.812Z,-0.72
2023-02-09T01:25:48.777Z,-0.82
2023-02-09T01:26:48.741Z,-0.77
2023-02-09T01:27:48.719Z,-0.86
2023-02-09T01:28:48.710Z,-0.78
2023-02-09T01:29:48.642Z,-0.75
2023-02-09T01:30:50.162Z,-0.85
2023-02-09T01:31:49.088Z,-0.82
2023-02-09T01:32:48.531Z,-0.82
2023-02-09T01:33:48.470Z,-0.8
2023-02-09T01:34:48.441Z,-0.85
2023-02-09T01:35:48.399Z,-0.85
2023-02-09T01:36:48.400Z,-0.8
2023-02-09T01:37:48.326Z,-0.8
2023-02-09T01:38:48.388Z,-0.72
2023-02-09T01:39:48.303Z,-0.68
2023-02-09T01:40:48.886Z,-0.72
2023-02-09T01:41:48.163Z,-0.71
2023-02-09T01:42:48.132Z,-0.72
2023-02-09T01:43:48.089Z,-0.7
2023-02-09T01:44:48.110Z,-0.61
2023-02-09T01:45:48.003Z,-0.7
2023-02-09T01:46:47.989Z,-0.64
2023-02-09T01:47:47.935Z,-0.68
2023-02-09T01:48:47.912Z,-0.68
2023-02-09T01:49:47.856Z,-0.78
2023-02-09T01:50:48.575Z,-0.68
2023-02-09T01:51:47.785Z,-0.68
2023-02-09T01:52:47.734Z,-0.71
2023-02-09T01:53:47.694Z,-0.7
2023-02-09T01:54:47.678Z,-0.74
2023-02-09T01:55:47.617Z,-0.78
2023-02-09T01:56:47.589Z,-0.77
2023-02-09T01:57:47.297Z,-0.83
2023-02-09T01:58:47.508Z,-0.9
2023-02-09T01:59:47.469Z,-0.94
2023-02-09T02:00:48.374Z,-0.78
2023-02-09T02:01:47.639Z,-0.77
2023-02-09T02:02:47.578Z,-0.72
2023-02-09T02:03:47.322Z,-0.75
2023-02-09T02:04:47.292Z,-0.68
2023-02-09T02:05:47.231Z,-0.57
2023-02-09T02:06:47.197Z,-0.65
2023-02-09T02:07:47.150Z,-0.64
2023-02-09T02:08:47.118Z,-0.68
2023-02-09T02:09:47.075Z,-0.57
2023-02-09T02:10:47.998Z,-0.59
2023-02-09T02:11:47.012Z,-0.54
2023-02-09T02:12:46.980Z,-0.64
2023-02-09T02:13:46.936Z,-0.56
2023-02-09T02:14:46.910Z,-0.49
2023-02-09T02:15:47.035Z,-0.5
2023-02-09T02:16:46.857Z,-0.54
2023-02-09T02:17:46.773Z,-0.44
2023-02-09T02:18:46.720Z,-0.5
2023-02-09T02:19:46.686Z,-0.32
2023-02-09T02:20:47.394Z,-0.29
2023-02-09T02:21:46.610Z,-0.41
2023-02-09T02:22:46.572Z,-0.32
2023-02-09T02:23:46.535Z,-0.32
2023-02-09T02:24:46.491Z,-0.26
2023-02-09T02:25:46.447Z,-0.43
2023-02-09T02:26:46.441Z,-0.35
2023-02-09T02:27:46.370Z,-0.38
2023-02-09T02:28:46.349Z,-0.49
2023-02-09T02:29:46.294Z,-0.47
2023-02-09T02:30:47.368Z,-0.5
2023-02-09T02:31:46.545Z,-0.44
2023-02-09T02:32:46.245Z,-0.32
2023-02-09T02:33:46.140Z,-0.36
2023-02-09T02:34:46.123Z,-0.28
2023-02-09T02:35:46.095Z,-0.28
2023-02-09T02:36:46.096Z,-0.2
2023-02-09T02:37:45.769Z,-0.2
2023-02-09T02:38:45.942Z,-0.25
2023-02-09T02:39:45.675Z,-0.26
2023-02-09T02:40:46.600Z,-0.26
2023-02-09T02:41:45.852Z,-0.28
2023-02-09T02:42:45.809Z,-0.2
2023-02-09T02:43:45.778Z,-0.21
2023-02-09T02:44:45.722Z,-0.11
2023-02-09T02:45:45.708Z,-0.21
2023-02-09T02:46:45.942Z,-0.11
2023-02-09T02:47:45.611Z,-0.2
2023-02-09T02:48:45.617Z,-0.15
2023-02-09T02:49:45.562Z,-0.14
2023-02-09T02:50:46.249Z,-0.18
2023-02-09T02:51:45.462Z,-0.1
2023-02-09T02:52:45.443Z,-0.08
2023-02-09T02:53:45.379Z,-0.11
2023-02-09T02:54:45.335Z,-0.08
2023-02-09T02:55:45.300Z,-0.15
2023-02-09T02:56:45.260Z,-0.2
2023-02-09T02:57:44.996Z,-0.13
2023-02-09T02:58:45.201Z,-0.15
2023-02-09T02:59:45.149Z,-0.21
2023-02-09T03:00:45.861Z,-0.25
2023-02-09T03:01:45.246Z,-0.23
2023-02-09T03:02:45.092Z,-0.2
2023-02-09T03:03:45.006Z,-0.18
2023-02-09T03:04:45.027Z,-0.2
2023-02-09T03:05:45.176Z,-0.26
2023-02-09T03:06:44.896Z,-0.31
2023-02-09T03:07:44.863Z,-0.25
2023-02-09T03:08:44.820Z,-0.21
2023-02-09T03:09:44.773Z,-0.31
2023-02-09T03:10:45.338Z,-0.28
2023-02-09T03:11:44.703Z,-0.29
2023-02-09T03:12:44.654Z,-0.36
2023-02-09T03:13:44.636Z,-0.26
2023-02-09T03:14:44.576Z,-0.31
2023-02-09T03:15:44.655Z,-0.31
2023-02-09T03:16:44.529Z,-0.34
2023-02-09T03:17:44.463Z,-0.43
2023-02-09T03:18:44.422Z,-0.31
2023-02-09T03:19:44.418Z,-0.34
2023-02-09T03:20:44.619Z,-0.26
2023-02-09T03:21:44.059Z,-0.32
2023-02-09T03:22:44.260Z,-0.21
2023-02-09T03:23:44.237Z,-0.21
2023-02-09T03:24:44.229Z,-0.36
2023-02-09T03:25:44.158Z,-0.32
2023-02-09T03:26:44.110Z,-0.38
2023-02-09T03:27:44.134Z,-0.35
2023-02-09T03:28:44.067Z,-0.39
2023-02-09T03:29:44.009Z,-0.38
2023-02-09T03:30:44.450Z,-0.35
2023-02-09T03:31:44.072Z,-0.32
2023-02-09T03:32:43.885Z,-0.35
2023-02-09T03:33:43.845Z,-0.35
2023-02-09T03:34:43.867Z,-0.34
2023-02-09T03:35:43.767Z,-0.35
2023-02-09T03:36:43.774Z,-0.34
2023-02-09T03:37:43.707Z,-0.39
2023-02-09T03:38:43.649Z,-0.36
2023-02-09T03:39:43.629Z,-0.46
2023-02-09T03:40:43.989Z,-0.38
2023-02-09T03:41:43.543Z,-0.35
2023-02-09T03:42:43.500Z,-0.35
2023-02-09T03:43:43.459Z,-0.35
2023-02-09T03:44:43.416Z,-0.43
2023-02-09T03:45:43.387Z,-0.32
2023-02-09T03:46:43.578Z,-0.35
2023-02-09T03:47:43.304Z,-0.35
2023-02-09T03:48:43.261Z,-0.35
2023-02-09T03:49:43.238Z,-0.32
2023-02-09T03:50:43.503Z,-0.31
2023-02-09T03:51:43.185Z,-0.32
2023-02-09T03:52:43.158Z,-0.31
2023-02-09T03:53:43.080Z,-0.38
2023-02-09T03:54:43.052Z,-0.35
2023-02-09T03:55:42.996Z,-0.39
2023-02-09T03:56:43.117Z,-0.38
2023-02-09T03:57:42.959Z,-0.38
2023-02-09T03:58:42.898Z,-0.43
2023-02-09T03:59:42.843Z,-0.35
2023-02-09T04:00:43.157Z,-0.41
2023-02-09T04:01:42.787Z,-0.36
2023-02-09T04:02:42.972Z,-0.52
2023-02-09T04:03:42.691Z,-0.52
2023-02-09T04:04:42.650Z,-0.5
2023-02-09T04:05:42.603Z,-0.43
2023-02-09T04:06:42.563Z,-0.52
2023-02-09T04:07:42.522Z,-0.41
2023-02-09T04:08:42.550Z,-0.41
2023-02-09T04:09:42.458Z,-0.39
2023-02-09T04:10:42.422Z,-0.47
2023-02-09T04:11:42.430Z,-0.32
2023-02-09T04:12:42.431Z,-0.44
2023-02-09T04:13:42.299Z,-0.44
2023-02-09T04:14:42.260Z,-0.49
2023-02-09T04:15:42.225Z,-0.41
2023-02-09T04:16:42.403Z,-0.54
2023-02-09T04:17:42.156Z,-0.52
2023-02-09T04:18:42.104Z,-0.61
2023-02-09T04:19:42.071Z,-0.53
2023-02-09T04:20:42.026Z,-0.47
2023-02-09T04:21:42.008Z,-0.38
2023-02-09T04:22:41.951Z,-0.56
2023-02-09T04:23:41.938Z,-0.49
2023-02-09T04:24:41.929Z,-0.5
2023-02-09T04:25:41.842Z,-0.53
2023-02-09T04:26:41.789Z,-0.49
2023-02-09T04:27:41.780Z,-0.62
2023-02-09T04:28:41.739Z,-0.47
2023-02-09T04:29:41.680Z,-0.56
2023-02-09T04:30:41.798Z,-0.57
2023-02-09T04:31:41.812Z,-0.53
2023-02-09T04:32:41.569Z,-0.62
2023-02-09T04:33:41.592Z,-0.57
2023-02-09T04:34:41.514Z,-0.54
2023-02-09T04:35:41.450Z,-0.56
2023-02-09T04:36:41.407Z,-0.61
2023-02-09T04:37:41.378Z,-0.7
2023-02-09T04:38:41.348Z,-0.75
2023-02-09T04:39:41.296Z,-0.65
2023-02-09T04:40:41.311Z,-0.71
2023-02-09T04:41:41.217Z,-0.71
2023-02-09T04:42:41.179Z,-0.67
2023-02-09T04:43:40.899Z,-0.64
2023-02-09T04:44:41.121Z,-0.7
2023-02-09T04:45:41.020Z,-0.7
2023-02-09T04:46:41.038Z,-0.67
2023-02-09T04:47:41.000Z,-0.68
2023-02-09T04:48:40.982Z,-0.65
2023-02-09T04:49:40.912Z,-0.68
2023-02-09T04:50:40.866Z,-0.75
2023-02-09T04:51:40.834Z,-0.75
2023-02-09T04:52:40.791Z,-0.7
2023-02-09T04:53:40.795Z,-0.72
2023-02-09T04:54:40.714Z,-0.72
2023-02-09T04:55:40.676Z,-0.82
2023-02-09T04:56:42.470Z,-0.72
2023-02-09T04:57:40.598Z,-0.78
2023-02-09T04:58:40.568Z,-0.68
2023-02-09T04:59:40.525Z,-0.72
2023-02-09T05:00:40.532Z,-0.7
2023-02-09T05:01:40.526Z,-0.7
2023-02-09T05:02:40.408Z,-0.68
2023-02-09T05:03:40.584Z,-0.68
2023-02-09T05:04:40.334Z,-0.71
2023-02-09T05:05:40.309Z,-0.7
2023-02-09T05:06:40.269Z,-0.74
2023-02-09T05:07:40.224Z,-0.77
2023-02-09T05:08:40.191Z,-0.74
2023-02-09T05:09:40.130Z,-0.75
2023-02-09T05:10:40.100Z,-0.65
2023-02-09T05:11:40.053Z,-0.62
2023-02-09T05:12:40.066Z,-0.65
2023-02-09T05:13:40.002Z,-0.75
2023-02-09T05:14:39.700Z,-0.74
2023-02-09T05:15:39.908Z,-0.77
2023-02-09T05:16:41.877Z,-0.83
2023-02-09T05:17:39.588Z,-0.8
2023-02-09T05:18:39.792Z,-0.82
2023-02-09T05:19:39.744Z,-0.75
2023-02-09T05:20:39.733Z,-0.83
2023-02-09T05:21:39.666Z,-0.72
2023-02-09T05:22:39.642Z,-0.74
2023-02-09T05:23:39.594Z,-0.75
2023-02-09T05:24:39.562Z,-0.75
2023-02-09T05:25:39.539Z,-0.68
2023-02-09T05:26:39.501Z,-0.7
2023-02-09T05:27:39.438Z,-0.74
2023-02-09T05:28:39.454Z,-0.77
2023-02-09T05:29:39.398Z,-0.67
2023-02-09T05:30:39.458Z,-0.72
2023-02-09T05:31:39.629Z,-0.67
2023-02-09T05:32:39.291Z,-0.64
2023-02-09T05:33:39.300Z,-0.62
2023-02-09T05:34:39.160Z,-0.68
2023-02-09T05:35:39.135Z,-0.71
2023-02-09T05:36:39.094Z,-0.71
2023-02-09T05:37:39.060Z,-0.68
2023-02-09T05:38:39.051Z,-0.67
2023-02-09T05:39:38.963Z,-0.68
2023-02-09T05:40:38.945Z,-0.7
2023-02-09T05:41:38.908Z,-0.59
2023-02-09T05:42:39.010Z,-0.59
2023-02-09T05:43:38.819Z,-0.56
2023-02-09T05:44:38.839Z,-0.62
2023-02-09T05:45:38.920Z,-0.71
2023-02-09T05:46:38.709Z,-0.62
2023-02-09T05:47:38.675Z,-0.71
2023-02-09T05:48:38.660Z,-0.71
2023-02-09T05:49:38.580Z,-0.71
2023-02-09T05:50:38.552Z,-0.71
2023-02-09T05:51:38.500Z,-0.67
2023-02-09T05:52:38.486Z,-0.67
2023-02-09T05:53:38.430Z,-0.62
2023-02-09T05:54:38.400Z,-0.71
2023-02-09T05:55:38.375Z,-0.7
2023-02-09T05:56:38.308Z,-0.65
2023-02-09T05:57:38.277Z,-0.59
2023-02-09T05:58:38.227Z,-0.72
2023-02-09T05:59:38.223Z,-0.68
2023-02-09T06:00:38.248Z,-0.65
2023-02-09T06:01:38.114Z,-0.71
2023-02-09T06:02:38.284Z,-0.74
2023-02-09T06:03:38.167Z,-0.68
2023-02-09T06:04:38.039Z,-0.65
2023-02-09T06:05:37.983Z,-0.71
2023-02-09T06:06:37.922Z,-0.71
2023-02-09T06:07:37.889Z,-0.71
2023-02-09T06:08:37.847Z,-0.74
2023-02-09T06:09:37.801Z,-0.74
2023-02-09T06:10:37.772Z,-0.71
2023-02-09T06:11:37.821Z,-0.78
2023-02-09T06:12:37.678Z,-0.82
2023-02-09T06:13:37.441Z,-0.77
2023-02-09T06:14:37.614Z,-0.74
2023-02-09T06:15:37.703Z,-0.74
2023-02-09T06:16:37.578Z,-0.74
2023-02-09T06:17:37.487Z,-0.78
2023-02-09T06:18:37.450Z,-0.67
2023-02-09T06:19:37.428Z,-0.74
2023-02-09T06:20:37.412Z,-0.77
2023-02-09T06:21:37.341Z,-0.74
2023-02-09T06:22:37.297Z,-0.68
2023-02-09T06:23:39.843Z,-0.74
2023-02-09T06:24:37.246Z,-0.71
2023-02-09T06:25:37.185Z,-0.75
2023-02-09T06:26:37.142Z,-0.7
2023-02-09T06:27:37.128Z,-0.72
2023-02-09T06:28:37.190Z,-0.72
2023-02-09T06:29:37.021Z,-0.7
2023-02-09T06:30:37.895Z,-0.68
2023-02-09T06:31:37.402Z,-0.74
2023-02-09T06:32:36.979Z,-0.71
2023-02-09T06:33:36.992Z,-0.74
2023-02-09T06:34:36.876Z,-0.72
2023-02-09T06:35:36.813Z,-0.72
2023-02-09T06:36:36.834Z,-0.77
2023-02-09T06:37:36.736Z,-0.68
2023-02-09T06:38:36.733Z,-0.71
2023-02-09T06:39:36.644Z,-0.62
2023-02-09T06:40:36.609Z,-0.61
2023-02-09T06:41:36.578Z,-0.57
2023-02-09T06:42:36.536Z,-0.59
2023-02-09T06:43:36.501Z,-0.53
2023-02-09T06:44:36.444Z,-0.53
2023-02-09T06:45:36.428Z,-0.57
2023-02-09T06:46:36.520Z,-0.59
2023-02-09T06:47:36.591Z,-0.54
2023-02-09T06:48:36.695Z,-0.61
2023-02-09T06:49:36.375Z,-0.59
2023-02-09T06:50:36.524Z,-0.52
2023-02-09T06:51:36.514Z,-0.57
2023-02-09T06:52:36.174Z,-0.57
2023-02-09T06:53:36.092Z,-0.57
2023-02-09T06:54:36.082Z,-0.62
2023-02-09T06:55:36.024Z,-0.65
2023-02-09T06:56:35.979Z,-0.57
2023-02-09T06:57:35.939Z,-0.59
2023-02-09T06:58:35.914Z,-0.61
2023-02-09T06:59:36.191Z,-0.54
2023-02-09T07:00:36.053Z,-0.7
2023-02-09T07:01:35.994Z,-0.67
2023-02-09T07:02:35.979Z,-0.61
2023-02-09T07:03:35.725Z,-0.56
2023-02-09T07:04:35.760Z,-0.53
2023-02-09T07:05:35.636Z,-0.5
2023-02-09T07:06:35.609Z,-0.56
2023-02-09T07:07:35.809Z,-0.56
2023-02-09T07:08:35.555Z,-0.53
2023-02-09T07:09:35.237Z,-0.5
2023-02-09T07:10:35.515Z,-0.56
2023-02-09T07:11:35.420Z,-0.59
2023-02-09T07:12:35.366Z,-0.54
2023-02-09T07:13:35.344Z,-0.54
2023-02-09T07:14:35.289Z,-0.56
2023-02-09T07:15:35.290Z,-0.5
2023-02-09T07:16:35.224Z,-0.49
2023-02-09T07:17:35.210Z,-0.52
2023-02-09T07:18:35.133Z,-0.36
2023-02-09T07:19:35.102Z,-0.38
2023-02-09T07:20:35.150Z,-0.36
2023-02-09T07:21:35.136Z,-0.41
2023-02-09T07:22:35.008Z,-0.44
2023-02-09T07:23:34.964Z,-0.34
2023-02-09T07:24:34.934Z,-0.36
2023-02-09T07:25:34.868Z,-0.32
2023-02-09T07:26:34.841Z,-0.28
2023-02-09T07:27:34.798Z,-0.23
2023-02-09T07:28:35.178Z,-0.18
2023-02-09T07:29:34.714Z,-0.2
2023-02-09T07:30:35.041Z,-0.1
2023-02-09T07:31:34.844Z,0.01
2023-02-09T07:32:34.717Z,-0.02
2023-02-09T07:33:34.619Z,0.04
2023-02-09T07:34:34.522Z,0.04
2023-02-09T07:35:34.492Z,0.15
2023-02-09T07:36:34.782Z,0.12
2023-02-09T07:37:34.452Z,0.04
2023-02-09T07:38:34.568Z,0.11
2023-02-09T07:39:34.653Z,0.21
2023-02-09T07:40:34.397Z,0.21
2023-02-09T07:41:34.290Z,0.25
2023-02-09T07:42:34.216Z,0.26
2023-02-09T07:43:34.199Z,0.23
2023-02-09T07:44:34.167Z,0.32
2023-02-09T07:45:34.226Z,0.34
2023-02-09T07:46:34.327Z,0.32
2023-02-09T07:47:34.043Z,0.37
2023-02-09T07:48:33.991Z,0.43
2023-02-09T07:49:33.967Z,0.4
2023-02-09T07:50:33.914Z,0.41
2023-02-09T07:51:35.787Z,0.47
2023-02-09T07:52:33.910Z,0.43
2023-02-09T07:53:33.917Z,0.56
2023-02-09T07:54:33.768Z,0.52
2023-02-09T07:55:33.722Z,0.49
2023-02-09T07:56:33.737Z,0.59
2023-02-09T07:57:33.969Z,0.5
2023-02-09T07:58:33.608Z,0.5
2023-02-09T07:59:33.579Z,0.68
2023-02-09T08:00:33.531Z,0.66
2023-02-09T08:01:33.399Z,0.7
2023-02-09T08:02:33.464Z,0.74
2023-02-09T08:03:33.465Z,0.84
2023-02-09T08:04:33.384Z,0.83
2023-02-09T08:05:33.574Z,0.76
2023-02-09T08:06:46.266Z,0.78
2023-02-09T08:07:33.026Z,0.73
2023-02-09T08:08:33.347Z,0.81
2023-02-09T08:09:33.202Z,0.73
2023-02-09T08:10:33.171Z,0.8
2023-02-09T08:11:33.132Z,0.78
2023-02-09T08:12:33.178Z,0.83
2023-02-09T08:13:33.074Z,0.91
2023-02-09T08:14:32.783Z,0.95
2023-02-09T08:15:33.024Z,0.98
2023-02-09T08:16:33.245Z,1.02
2023-02-09T08:17:32.701Z,1.01
2023-02-09T08:18:32.873Z,1.06
2023-02-09T08:19:32.869Z,1.08
2023-02-09T08:20:32.800Z,1.13
2023-02-09T08:21:32.761Z,1.14
2023-02-09T08:22:32.745Z,1.17
2023-02-09T08:23:32.687Z,1.19
2023-02-09T08:24:32.700Z,1.22
2023-02-09T08:25:32.647Z,1.3
2023-02-09T08:26:32.696Z,1.3
2023-02-09T08:27:32.553Z,1.24
2023-02-09T08:28:48.248Z,1.44
2023-02-09T08:29:32.470Z,1.45
2023-02-09T08:30:32.432Z,1.38
2023-02-09T08:31:32.890Z,1.35
2023-02-09T08:32:32.404Z,1.41
2023-02-09T08:33:32.314Z,1.53
2023-02-09T08:34:32.278Z,1.55
2023-02-09T08:35:35.017Z,1.48
2023-02-09T08:36:32.230Z,1.5
2023-02-09T08:37:32.196Z,1.55
2023-02-09T08:38:31.904Z,1.56
2023-02-09T08:39:32.102Z,1.53
2023-02-09T08:40:32.131Z,1.56
2023-02-09T08:41:31.561Z,1.6
2023-02-09T08:42:32.001Z,1.66
2023-02-09T08:43:31.968Z,1.67
2023-02-09T08:44:31.975Z,1.62
2023-02-09T08:45:32.373Z,1.71
2023-02-09T08:46:32.365Z,1.73
2023-02-09T08:47:31.827Z,1.63
2023-02-09T08:48:32.202Z,1.78
2023-02-09T08:49:31.750Z,1.87
2023-02-09T08:50:31.720Z,1.88
2023-02-09T08:51:31.697Z,1.92
2023-02-09T08:52:31.653Z,2
2023-02-09T08:53:31.600Z,1.99
2023-02-09T08:54:31.327Z,1.99
2023-02-09T08:55:31.531Z,2.06
2023-02-09T08:56:31.593Z,2.06
2023-02-09T08:57:47.536Z,2.06
2023-02-09T08:58:31.447Z,2.14
2023-02-09T08:59:31.258Z,2.15
2023-02-09T09:00:31.382Z,2.15
2023-02-09T09:01:31.608Z,2.14
2023-02-09T09:02:31.377Z,2.29
2023-02-09T09:03:31.555Z,2.32
2023-02-09T09:04:31.268Z,2.33
2023-02-09T09:05:34.199Z,2.39
2023-02-09T09:06:31.153Z,2.42
2023-02-09T09:07:31.150Z,2.47
2023-02-09T09:08:31.079Z,2.39
2023-02-09T09:09:31.033Z,2.36
2023-02-09T09:10:31.022Z,2.44
2023-02-09T09:11:30.764Z,2.47
2023-02-09T09:12:30.986Z,2.49
2023-02-09T09:13:30.908Z,2.46
2023-02-09T09:14:30.847Z,2.49
2023-02-09T09:15:30.826Z,2.54
2023-02-09T09:16:30.974Z,2.53
2023-02-09T09:17:30.751Z,2.61
2023-02-09T09:18:30.725Z,2.6
2023-02-09T09:19:30.679Z,2.56
2023-02-09T09:20:30.657Z,2.64
2023-02-09T09:21:30.370Z,2.62
2023-02-09T09:22:30.325Z,2.68
2023-02-09T09:23:30.532Z,2.71
2023-02-09T09:24:30.487Z,2.74
2023-02-09T09:25:30.472Z,2.83
2023-02-09T09:26:30.458Z,2.83
2023-02-09T09:27:31.585Z,2.75
2023-02-09T09:28:30.684Z,2.8
2023-02-09T09:29:30.320Z,2.85
2023-02-09T09:30:30.279Z,2.9
2023-02-09T09:31:30.786Z,2.92
2023-02-09T09:32:30.837Z,2.89
2023-02-09T09:33:30.177Z,2.92
2023-02-09T09:34:30.165Z,2.95
2023-02-09T09:35:30.142Z,3.03
2023-02-09T09:36:30.098Z,3.11
2023-02-09T09:37:30.059Z,3.1
2023-02-09T09:38:30.021Z,3.14
2023-02-09T09:39:30.010Z,3.22
2023-02-09T09:40:29.950Z,3.22
2023-02-09T09:41:29.907Z,3.31
2023-02-09T09:42:29.866Z,3.28
2023-02-09T09:43:29.830Z,3.34
2023-02-09T09:44:29.901Z,3.4
2023-02-09T09:45:29.764Z,3.25
2023-02-09T09:46:29.985Z,3.29
2023-02-09T09:47:29.684Z,3.5
2023-02-09T09:48:29.674Z,3.44
2023-02-09T09:49:29.618Z,3.51
2023-02-09T09:50:31.227Z,3.51
2023-02-09T09:51:29.548Z,3.48
2023-02-09T09:52:29.659Z,3.6
2023-02-09T09:53:29.478Z,3.68
2023-02-09T09:54:29.452Z,3.62
2023-02-09T09:55:29.418Z,3.65
2023-02-09T09:56:32.000Z,3.76
2023-02-09T09:57:29.384Z,3.76
2023-02-09T09:58:29.315Z,3.81
2023-02-09T09:59:29.284Z,3.76
2023-02-09T10:00:29.282Z,3.84
2023-02-09T10:01:29.628Z,3.92
2023-02-09T10:02:29.182Z,3.88
2023-02-09T10:03:29.135Z,3.88
2023-02-09T10:04:29.304Z,3.86
2023-02-09T10:05:29.094Z,3.99
2023-02-09T10:06:29.040Z,3.88
2023-02-09T10:07:29.004Z,3.88
2023-02-09T10:08:28.975Z,3.96
2023-02-09T10:09:28.686Z,3.92
2023-02-09T10:10:28.886Z,4.1
2023-02-09T10:11:28.898Z,3.96
2023-02-09T10:12:28.828Z,4.04
2023-02-09T10:13:28.797Z,4.04
2023-02-09T10:14:28.752Z,4.05
2023-02-09T10:15:28.789Z,4.13
2023-02-09T10:16:28.801Z,4.05
2023-02-09T10:17:28.653Z,4.19
2023-02-09T10:18:28.614Z,4.16
2023-02-09T10:19:28.601Z,4.2
2023-02-09T10:20:28.566Z,4.08
2023-02-09T10:21:28.517Z,4.26
2023-02-09T10:22:28.477Z,4.1
2023-02-09T10:23:28.474Z,4.26
2023-02-09T10:24:28.421Z,4.22
2023-02-09T10:25:28.374Z,4.17
2023-02-09T10:26:28.362Z,4.26
2023-02-09T10:27:28.302Z,4.31
2023-02-09T10:28:28.576Z,4.31
2023-02-09T10:29:28.264Z,4.3
2023-02-09T10:30:28.278Z,4.3
2023-02-09T10:31:28.790Z,4.34
2023-02-09T10:32:28.206Z,4.37
2023-02-09T10:33:28.089Z,4.44
2023-02-09T10:34:28.098Z,4.44
2023-02-09T10:35:28.051Z,4.49
2023-02-09T10:36:28.024Z,4.56
2023-02-09T10:37:27.747Z,4.5
2023-02-09T10:38:27.932Z,4.6
2023-02-09T10:39:27.904Z,4.62
2023-02-09T10:40:27.857Z,4.62
2023-02-09T10:41:27.576Z,4.66
2023-02-09T10:42:27.808Z,4.86
2023-02-09T10:43:27.777Z,4.86
2023-02-09T10:44:27.752Z,4.77
2023-02-09T10:45:27.700Z,4.84
2023-02-09T10:46:27.877Z,4.93
2023-02-09T10:47:27.666Z,4.96
2023-02-09T10:48:27.655Z,5.05
2023-02-09T10:49:27.576Z,5.08
2023-02-09T10:50:27.510Z,5.05
2023-02-09T10:51:27.381Z,5.07
2023-02-09T10:52:27.229Z,5.08
2023-02-09T10:53:27.423Z,5.12
2023-02-09T10:54:27.374Z,5.14
2023-02-09T10:55:27.108Z,5.15
2023-02-09T10:56:27.311Z,5.25
2023-02-09T10:57:27.302Z,5.28
2023-02-09T10:58:27.254Z,5.29
2023-02-09T10:59:27.330Z,5.33
2023-02-09T11:00:27.209Z,5.29
2023-02-09T11:01:27.366Z,5.43
2023-02-09T11:02:27.125Z,5.39
2023-02-09T11:03:27.129Z,5.51
2023-02-09T11:04:27.220Z,5.48
2023-02-09T11:05:27.031Z,5.5
2023-02-09T11:06:26.986Z,5.62
2023-02-09T11:07:26.956Z,5.61
2023-02-09T11:08:26.971Z,5.65
2023-02-09T11:09:26.885Z,5.66
2023-02-09T11:10:26.616Z,5.66
2023-02-09T11:11:26.840Z,5.68
2023-02-09T11:12:26.814Z,5.62
2023-02-09T11:13:26.765Z,5.61
2023-02-09T11:14:26.728Z,5.61
2023-02-09T11:15:26.447Z,5.61
2023-02-09T11:16:27.021Z,5.53
2023-02-09T11:17:26.635Z,5.48
2023-02-09T11:18:27.788Z,5.53
2023-02-09T11:19:26.354Z,5.56
2023-02-09T11:20:26.637Z,5.53
2023-02-09T11:21:26.554Z,5.59
2023-02-09T11:22:31.358Z,5.65
2023-02-09T11:23:26.440Z,5.69
2023-02-09T11:24:28.658Z,5.71
2023-02-09T11:25:26.373Z,5.75
2023-02-09T11:26:26.363Z,5.79
2023-02-09T11:27:28.462Z,5.75
2023-02-09T11:28:26.594Z,5.79
2023-02-09T11:29:26.234Z,5.75
2023-02-09T11:30:26.106Z,5.75
2023-02-09T11:31:26.570Z,5.75
2023-02-09T11:32:26.135Z,5.71
2023-02-09T11:33:25.858Z,5.82
2023-02-09T11:34:28.628Z,5.87
2023-02-09T11:35:26.038Z,5.87
2023-02-09T11:36:26.086Z,5.89
2023-02-09T11:37:25.974Z,5.94
2023-02-09T11:38:25.935Z,5.9
2023-02-09T11:39:25.901Z,6.01
2023-02-09T11:40:25.642Z,5.93
2023-02-09T11:41:25.832Z,6.02
2023-02-09T11:42:25.558Z,6.11
2023-02-09T11:43:25.765Z,6.08
2023-02-09T11:44:25.744Z,6.02
2023-02-09T11:45:25.702Z,6.12
2023-02-09T11:46:25.892Z,6.12
2023-02-09T11:47:25.845Z,6.17
2023-02-09T11:48:25.611Z,6.22
2023-02-09T11:49:25.576Z,6.3
2023-02-09T11:50:25.535Z,6.3
2023-02-09T11:51:25.513Z,6.31
2023-02-09T11:52:25.529Z,6.31
2023-02-09T11:53:25.443Z,6.38
2023-02-09T11:54:25.435Z,6.27
2023-02-09T11:55:25.376Z,6.49
2023-02-09T11:56:25.373Z,6.48
2023-02-09T11:57:25.309Z,6.51
2023-02-09T11:58:25.272Z,6.46
2023-02-09T11:59:25.256Z,6.54
2023-02-09T12:00:25.216Z,6.49
2023-02-09T12:01:25.816Z,6.54
2023-02-09T12:02:28.312Z,6.69
2023-02-09T12:03:25.118Z,6.7
2023-02-09T12:04:25.118Z,6.66
2023-02-09T12:05:25.130Z,6.67
2023-02-09T12:06:25.455Z,6.74
2023-02-09T12:07:24.748Z,6.72
2023-02-09T12:08:24.998Z,6.78
2023-02-09T12:09:24.938Z,6.74
2023-02-09T12:10:24.904Z,6.75
2023-02-09T12:11:24.863Z,6.88
2023-02-09T12:12:24.852Z,6.88
2023-02-09T12:13:24.786Z,7.07
2023-02-09T12:14:24.750Z,6.95
2023-02-09T12:15:24.779Z,6.95
2023-02-09T12:16:24.980Z,7.07
2023-02-09T12:17:24.671Z,6.99
2023-02-09T12:18:24.650Z,7.02
2023-02-09T12:19:24.612Z,6.92
2023-02-09T12:20:24.656Z,6.97
2023-02-09T12:21:24.545Z,6.96
2023-02-09T12:22:24.519Z,6.93
2023-02-09T12:23:24.532Z,7
2023-02-09T12:24:24.520Z,7.05
2023-02-09T12:25:24.423Z,7.06
2023-02-09T12:26:24.374Z,7.14
2023-02-09T12:27:24.355Z,7.07
2023-02-09T12:28:24.632Z,7.21
2023-02-09T12:29:24.305Z,7.24
2023-02-09T12:30:24.289Z,7.24
2023-02-09T12:31:24.668Z,7.23
2023-02-09T12:32:24.456Z,7.15
2023-02-09T12:33:24.235Z,7.03
2023-02-09T12:34:24.123Z,7.06
2023-02-09T12:35:24.092Z,7.03
2023-02-09T12:36:24.139Z,7.03
2023-02-09T12:37:29.740Z,7.11
2023-02-09T12:38:23.990Z,7.02
2023-02-09T12:39:28.750Z,7.15
2023-02-09T12:40:23.978Z,7.13
2023-02-09T12:41:23.649Z,7.13
2023-02-09T12:42:23.866Z,7.21
2023-02-09T12:43:23.584Z,7.18
2023-02-09T12:44:23.825Z,7.13
2023-02-09T12:45:23.521Z,7.11
2023-02-09T12:46:23.987Z,7.14
2023-02-09T12:47:23.474Z,7.06
2023-02-09T12:48:23.722Z,7.07
2023-02-09T12:49:23.664Z,7.07
2023-02-09T12:50:23.609Z,7.1
2023-02-09T12:51:23.569Z,7.06
2023-02-09T12:52:23.601Z,7.15
2023-02-09T12:53:23.299Z,7.1
2023-02-09T12:54:23.494Z,7.1
2023-02-09T12:55:23.523Z,7.13
2023-02-09T12:56:23.421Z,7.1
2023-02-09T12:57:23.382Z,7.07
2023-02-09T12:58:23.368Z,7.05
2023-02-09T12:59:23.416Z,7.14
2023-02-09T13:00:23.407Z,7.13
2023-02-09T13:01:23.195Z,7.1
2023-02-09T13:02:22.979Z,7.05
2023-02-09T13:03:22.995Z,7.11
2023-02-09T13:04:23.372Z,7.15
2023-02-09T13:05:23.172Z,7.15
2023-02-09T13:06:23.106Z,7.14